Time;durP1;ratioP1;P1;durP2;ratioP2;P2;SDS_P1;SDS_P2;PMS_P1;PMS_P2;Temp;Humidity;BMP_temperature;BMP_pressure;BME280_temperature;BME280_humidity;BME280_pressure;Samples;Min_cycle;Max_cycle;Signal;HPM_P1;HPM_P2
2022/03/05 00:02:20;;;;;;;25.75;17.70;;;;;;;4.02;63.62;101949.28;5015988;28;20504;-48
2022/03/05 00:04:49;;;;;;;25.40;16.67;;;;;;;3.95;63.67;101956.50;5014874;28;20458;-48
2022/03/05 00:07:19;;;;;;;26.38;17.85;;;;;;;3.82;64.79;101959.91;5017783;28;20129;-51
2022/03/05 00:09:47;;;;;;;25.65;16.88;;;;;;;3.77;64.88;101956.97;5016575;28;20125;-50
2022/03/05 00:12:14;;;;;;;23.48;16.52;;;;;;;3.78;64.88;101955.97;5015907;28;20400;-47
2022/03/05 00:14:42;;;;;;;25.77;16.65;;;;;;;3.87;64.34;101956.63;5014549;28;20042;-49
2022/03/05 00:17:11;;;;;;;27.10;16.73;;;;;;;3.90;64.37;101958.97;5015215;28;20116;-49
2022/03/05 00:19:40;;;;;;;22.55;14.77;;;;;;;3.90;64.38;101957.09;5004765;28;20381;-46
2022/03/05 00:22:08;;;;;;;23.08;15.30;;;;;;;3.76;64.38;101950.75;5014344;28;20407;-47
2022/03/05 00:24:35;;;;;;;24.35;17.17;;;;;;;3.75;64.66;101957.19;5015482;28;20054;-47
2022/03/05 00:27:04;;;;;;;24.63;16.92;;;;;;;3.76;64.57;101953.44;5015581;28;20056;-48
2022/03/05 00:29:31;;;;;;;27.90;17.42;;;;;;;3.76;64.45;101948.06;5015629;28;20404;-45
2022/03/05 00:31:59;;;;;;;23.80;16.42;;;;;;;3.71;65.48;101955.06;5016485;28;20050;-49
2022/03/05 00:34:27;;;;;;;24.92;16.67;;;;;;;3.75;65.19;101957.19;5015454;28;20038;-46
2022/03/05 00:36:55;;;;;;;23.45;16.02;;;;;;;3.76;65.19;101961.53;5015079;28;20056;-48
2022/03/05 00:39:23;;;;;;;22.00;16.17;;;;;;;3.81;65.05;101955.56;5023358;28;20056;-49
2022/03/05 00:41:50;;;;;;;23.73;15.80;;;;;;;3.78;64.18;101956.78;5035593;28;20462;-48
2022/03/05 00:44:18;;;;;;;25.02;17.65;;;;;;;3.73;64.94;101951.16;5028985;28;20045;-47
2022/03/05 00:46:46;;;;;;;23.27;16.42;;;;;;;3.59;65.49;101952.88;5014925;28;20045;-47
2022/03/05 00:49:13;;;;;;;25.67;17.83;;;;;;;3.56;65.71;101960.50;5023215;28;20034;-42
2022/03/05 00:51:41;;;;;;;25.35;16.80;;;;;;;3.53;65.51;101952.81;5014576;28;20501;-45
2022/03/05 00:54:09;;;;;;;24.80;17.15;;;;;;;3.51;65.68;101949.47;5015281;28;20038;-47
2022/03/05 00:56:37;;;;;;;24.73;17.55;;;;;;;3.33;66.02;101953.47;5015967;28;20042;-49
2022/03/05 00:59:04;;;;;;;23.42;16.38;;;;;;;3.21;66.82;101946.91;5015004;28;20049;-47
2022/03/05 01:01:32;;;;;;;23.80;16.65;;;;;;;3.23;66.98;101947.56;5014918;28;20053;-48
2022/03/05 01:04:00;;;;;;;24.30;16.95;;;;;;;3.32;66.81;101943.72;5019868;28;20041;-49
2022/03/05 01:06:30;;;;;;;25.10;17.67;;;;;;;3.36;66.67;101939.59;5031450;28;20527;-51
2022/03/05 01:09:03;;;;;;;22.80;16.20;;;;;;;3.36;66.73;101944.16;5015624;28;20037;-51
2022/03/05 01:11:30;;;;;;;25.30;17.00;;;;;;;3.35;66.80;101945.19;5014683;28;20064;-49
2022/03/05 01:13:58;;;;;;;26.60;17.80;;;;;;;3.38;66.55;101945.63;5013448;28;20048;-50
2022/03/05 01:16:26;;;;;;;25.05;17.08;;;;;;;3.34;65.94;101938.13;5014365;28;20504;-49
2022/03/05 01:18:55;;;;;;;24.85;17.35;;;;;;;3.27;66.50;101932.72;5032661;28;20103;-45
2022/03/05 01:21:23;;;;;;;22.38;15.77;;;;;;;3.20;66.64;101942.56;5033353;28;20136;-48
2022/03/05 01:23:51;;;;;;;22.67;16.58;;;;;;;3.26;66.80;101935.56;5013985;28;20132;-48
2022/03/05 01:26:19;;;;;;;27.52;17.33;;;;;;;3.26;66.50;101941.78;5014610;28;20117;-50
2022/03/05 01:28:46;;;;;;;25.45;18.23;;;;;;;3.25;66.32;101933.88;5013783;28;20044;-48
2022/03/05 01:31:15;;;;;;;25.90;17.60;;;;;;;3.11;67.02;101938.34;5014449;28;20042;-47
2022/03/05 01:33:43;;;;;;;25.00;16.60;;;;;;;3.04;66.91;101942.81;5014472;28;20048;-48
2022/03/05 01:36:10;;;;;;;24.25;16.88;;;;;;;2.96;67.69;101930.31;5015321;28;20046;-47
2022/03/05 01:38:38;;;;;;;23.33;16.92;;;;;;;2.96;67.34;101936.50;5033200;28;20052;-49
2022/03/05 01:41:06;;;;;;;23.38;16.92;;;;;;;2.96;67.61;101928.44;5033575;28;20037;-50
2022/03/05 01:43:33;;;;;;;25.85;17.52;;;;;;;3.00;67.67;101934.25;5013817;28;20042;-46
2022/03/05 01:46:02;;;;;;;24.92;17.77;;;;;;;3.06;67.33;101935.38;5014042;28;20056;-49
2022/03/05 01:48:30;;;;;;;23.25;16.40;;;;;;;3.11;67.29;101938.34;5015178;28;20073;-50
2022/03/05 01:50:58;;;;;;;25.13;17.05;;;;;;;3.14;67.23;101935.25;5014333;28;20041;-49
2022/03/05 01:53:25;;;;;;;24.88;18.70;;;;;;;3.11;66.64;101932.94;5028953;28;20053;-44
2022/03/05 01:55:54;;;;;;;27.02;17.60;;;;;;;2.96;67.16;101936.50;5013959;28;20064;-48
2022/03/05 01:58:22;;;;;;;23.83;17.58;;;;;;;2.87;67.40;101931.44;5018076;28;20044;-45
2022/03/05 02:00:49;;;;;;;24.23;17.15;;;;;;;2.77;67.52;101927.19;5013860;28;20045;-47
2022/03/05 02:03:17;;;;;;;26.00;18.63;;;;;;;2.72;68.55;101928.78;4996361;28;20555;-47
2022/03/05 02:05:45;;;;;;;26.90;17.98;;;;;;;2.75;68.32;101929.22;5013571;28;20400;-49
2022/03/05 02:08:13;;;;;;;27.52;17.98;;;;;;;2.75;68.53;101933.78;5014065;28;20108;-47
2022/03/05 02:10:41;;;;;;;24.33;16.98;;;;;;;2.86;68.24;101932.44;5013353;28;20453;-50
2022/03/05 02:13:08;;;;;;;26.95;18.98;;;;;;;2.91;67.55;101938.94;5013681;28;20141;-47
2022/03/05 02:15:36;;;;;;;27.90;18.88;;;;;;;2.87;67.81;101942.22;5013688;28;20045;-48
2022/03/05 02:18:04;;;;;;;27.90;19.08;;;;;;;2.73;68.07;101936.66;5014586;28;20408;-50
2022/03/05 02:20:31;;;;;;;25.92;18.23;;;;;;;2.65;68.64;101942.16;5012461;28;20508;-47
2022/03/05 02:22:59;;;;;;;24.90;17.58;;;;;;;2.65;68.45;101936.78;5014713;28;20046;-49
2022/03/05 02:25:27;;;;;;;26.38;17.45;;;;;;;2.72;68.24;101937.69;5012172;28;20061;-50
2022/03/05 02:27:58;;;;;;;25.67;17.90;;;;;;;2.76;68.51;101936.25;5013726;28;20103;-49
2022/03/05 02:30:26;;;;;;;26.45;18.00;;;;;;;2.78;67.83;101933.41;5013454;28;20042;-48
2022/03/05 02:32:54;;;;;;;24.27;17.27;;;;;;;2.74;68.59;101932.09;5014424;28;20069;-48
2022/03/05 02:35:21;;;;;;;24.17;17.50;;;;;;;2.75;68.14;101925.72;5013898;28;20046;-48
2022/03/05 02:37:49;;;;;;;25.70;17.80;;;;;;;2.74;67.96;101926.72;4989553;28;20068;-48
2022/03/05 02:40:17;;;;;;;27.48;18.58;;;;;;;2.75;68.04;101926.53;5016612;28;20103;-48
2022/03/05 02:42:44;;;;;;;27.83;18.80;;;;;;;2.78;67.53;101922.63;5017460;28;20052;-48
2022/03/05 02:45:12;;;;;;;26.48;18.40;;;;;;;2.74;67.66;101918.63;5017608;28;20381;-48
2022/03/05 02:47:40;;;;;;;26.85;18.67;;;;;;;2.71;68.65;101924.41;5030920;28;20396;-53
2022/03/05 02:50:08;;;;;;;28.23;19.17;;;;;;;2.72;67.85;101923.41;5035268;28;20128;-53
2022/03/05 02:52:39;;;;;;;27.75;19.35;;;;;;;2.62;68.13;101923.69;5035061;28;20412;-47
2022/03/05 02:55:07;;;;;;;25.48;18.20;;;;;;;2.59;68.62;101924.06;5036164;28;20456;-51
2022/03/05 02:57:35;;;;;;;25.70;18.65;;;;;;;2.60;68.18;101920.38;5027412;28;20495;-51
2022/03/05 03:00:04;;;;;;;27.42;18.58;;;;;;;2.65;68.47;101922.50;5016998;28;20088;-46
2022/03/05 03:02:32;;;;;;;25.90;18.80;;;;;;;2.59;68.06;101917.84;5030916;28;20060;-47
2022/03/05 03:05:00;;;;;;;29.25;18.88;;;;;;;2.57;68.60;101915.34;5017047;28;20046;-48
2022/03/05 03:07:28;;;;;;;28.58;19.75;;;;;;;2.55;68.42;101912.84;5030870;28;20120;-49
2022/03/05 03:09:56;;;;;;;27.25;18.63;;;;;;;2.52;68.35;101910.50;5036856;28;20037;-52
2022/03/05 03:12:30;;;;;;;27.60;19.45;;;;;;;2.51;68.67;101911.56;5033203;28;21710;-50
2022/03/05 03:14:57;;;;;;;28.40;19.40;;;;;;;2.49;68.77;101913.59;5017311;28;20057;-51
2022/03/05 03:17:25;;;;;;;29.92;19.83;;;;;;;2.50;68.72;101909.91;5026845;28;20096;-53
2022/03/05 03:19:53;;;;;;;27.50;19.30;;;;;;;2.48;68.90;101900.34;5035320;28;20126;-48
2022/03/05 03:22:20;;;;;;;28.63;20.10;;;;;;;2.46;68.68;101907.75;5035642;28;20128;-49
2022/03/05 03:24:48;;;;;;;30.33;19.88;;;;;;;2.44;68.82;101902.56;5018374;28;20046;-46
2022/03/05 03:27:15;;;;;;;27.73;19.92;;;;;;;2.37;68.92;101903.50;4998835;28;20049;-49
2022/03/05 03:29:43;;;;;;;28.95;20.15;;;;;;;2.24;69.34;101907.69;5016757;28;20045;-47
2022/03/05 03:32:11;;;;;;;29.05;20.38;;;;;;;2.18;69.33;101910.28;5016847;28;20452;-54
2022/03/05 03:34:39;;;;;;;27.55;18.80;;;;;;;2.10;69.98;101906.66;5036357;28;20488;-49
2022/03/05 03:37:07;;;;;;;30.77;20.45;;;;;;;2.11;70.31;101911.00;5025971;28;20033;-47
2022/03/05 03:39:35;;;;;;;24.20;17.85;;;;;;;2.16;70.24;101901.56;5015291;28;20050;-50
2022/03/05 03:42:03;;;;;;;31.38;19.98;;;;;;;2.21;69.83;101904.53;5016596;28;20440;-51
2022/03/05 03:44:30;;;;;;;31.17;20.65;;;;;;;2.10;69.88;101903.97;5017392;28;20499;-50
2022/03/05 03:46:58;;;;;;;32.47;21.23;;;;;;;2.09;70.05;101898.78;5016584;28;20050;-49
2022/03/05 03:49:26;;;;;;;28.10;20.77;;;;;;;2.09;70.29;101910.38;5016213;28;20058;-49
2022/03/05 03:51:53;;;;;;;30.95;20.42;;;;;;;2.12;70.14;101904.63;4997451;28;20050;-50
2022/03/05 03:54:22;;;;;;;29.13;19.25;;;;;;;2.07;70.53;101912.41;5016350;28;20133;-48
2022/03/05 03:56:50;;;;;;;30.55;20.80;;;;;;;2.08;70.42;101914.06;5025382;28;20061;-46
2022/03/05 03:59:18;;;;;;;34.80;21.15;;;;;;;2.13;70.43;101913.50;5035635;28;20037;-48
2022/03/05 04:01:45;;;;;;;29.25;20.70;;;;;;;2.09;69.82;101909.53;5035535;28;20120;-49
2022/03/05 04:04:13;;;;;;;30.65;21.67;;;;;;;2.02;70.44;101916.66;5034058;28;20095;-46
2022/03/05 04:09:27;;;;;;;;;;;;;;;2.09;70.42;101923.81;5016427;28;20404;-48
2022/03/05 04:11:55;;;;;;;28.52;20.52;;;;;;;2.09;70.31;101928.34;5015910;28;19925;-49
2022/03/05 04:14:22;;;;;;;28.13;19.98;;;;;;;2.03;70.11;101919.16;5016003;28;20056;-48
2022/03/05 04:16:50;;;;;;;29.80;20.40;;;;;;;2.07;70.41;101925.84;5027276;28;20068;-50
2022/03/05 04:19:18;;;;;;;30.92;20.83;;;;;;;2.15;70.63;101929.47;5035343;28;20519;-51
2022/03/05 04:21:46;;;;;;;28.08;20.30;;;;;;;2.17;69.94;101930.13;5018132;28;20073;-47
2022/03/05 04:24:13;;;;;;;30.92;21.10;;;;;;;2.20;69.66;101932.44;5015604;28;20056;-48
2022/03/05 04:26:41;;;;;;;29.38;21.17;;;;;;;2.11;69.39;101927.13;5031767;28;20079;-48
2022/03/05 04:29:09;;;;;;;29.80;20.52;;;;;;;2.07;69.47;101931.22;5034254;28;20138;-48
2022/03/05 04:31:36;;;;;;;28.88;20.92;;;;;;;1.96;69.77;101931.69;5031254;28;20385;-48
2022/03/05 04:34:05;;;;;;;31.42;21.50;;;;;;;1.81;70.28;101930.81;5014354;28;20389;-49
2022/03/05 04:36:33;;;;;;;30.50;20.98;;;;;;;1.72;70.78;101932.75;5026630;28;20153;-49
2022/03/05 04:39:00;;;;;;;30.02;21.70;;;;;;;1.70;71.17;101940.16;5034943;28;20037;-49
2022/03/05 04:41:28;;;;;;;30.55;21.23;;;;;;;1.74;71.07;101930.72;5017325;28;20447;-49
2022/03/05 04:43:56;;;;;;;30.23;20.65;;;;;;;1.82;71.16;101929.78;5015237;28;20056;-50
2022/03/05 04:46:24;;;;;;;29.58;20.90;;;;;;;1.85;70.40;101932.97;5014298;28;20053;-47
2022/03/05 04:48:52;;;;;;;30.05;22.00;;;;;;;1.80;70.27;101940.72;5015011;28;20120;-51
2022/03/05 04:51:20;;;;;;;32.08;21.83;;;;;;;1.73;70.71;101939.78;5017705;28;20037;-48
2022/03/05 04:53:47;;;;;;;33.67;22.50;;;;;;;1.72;71.12;101937.28;5034743;28;20555;-49
2022/03/05 04:56:15;;;;;;;31.58;22.20;;;;;;;1.78;70.84;101942.78;5033099;28;20124;-50
2022/03/05 04:58:43;;;;;;;33.97;22.42;;;;;;;1.69;70.75;101944.69;5034659;28;20508;-47
2022/03/05 05:01:10;;;;;;;31.73;21.67;;;;;;;1.59;71.22;101949.50;5034944;28;20042;-53
2022/03/05 05:03:38;;;;;;;29.65;21.70;;;;;;;1.59;71.58;101943.25;5032907;28;20033;-49
2022/03/05 05:06:07;;;;;;;33.95;23.58;;;;;;;1.42;71.85;101942.56;5029612;28;20137;-51
2022/03/05 05:08:34;;;;;;;33.42;21.67;;;;;;;1.27;72.38;101947.88;5014565;28;20041;-49
2022/03/05 05:11:02;;;;;;;30.13;21.77;;;;;;;1.23;72.75;101957.31;5014620;28;20069;-49
2022/03/05 05:13:30;;;;;;;32.20;22.92;;;;;;;1.33;72.96;101954.41;5014842;28;20070;-49
2022/03/05 05:15:58;;;;;;;30.30;22.13;;;;;;;1.41;72.36;101951.63;5025851;28;20563;-50
2022/03/05 05:18:26;;;;;;;34.42;22.73;;;;;;;1.38;72.61;101954.69;5034278;28;20057;-54
2022/03/05 05:20:54;;;;;;;33.80;22.60;;;;;;;1.41;72.23;101957.00;5034319;28;20136;-51
2022/03/05 05:23:22;;;;;;;30.85;21.80;;;;;;;1.46;72.32;101955.44;5020460;28;20072;-50
2022/03/05 05:25:50;;;;;;;33.30;23.05;;;;;;;1.51;71.93;101962.13;5014378;28;20464;-48
2022/03/05 05:28:18;;;;;;;33.20;22.77;;;;;;;1.50;71.77;101964.00;5015344;28;20053;-50
2022/03/05 05:30:47;;;;;;;32.92;23.63;;;;;;;1.47;71.84;101970.56;5013043;28;20065;-53
2022/03/05 05:33:15;;;;;;;32.28;22.95;;;;;;;1.47;72.09;101969.72;5014095;28;20485;-49
2022/03/05 05:35:43;;;;;;;31.40;22.65;;;;;;;1.45;71.90;101964.53;5014093;28;20068;-49
2022/03/05 05:38:10;;;;;;;32.60;23.13;;;;;;;1.38;71.97;101974.31;5012844;28;20504;-52
2022/03/05 05:40:38;;;;;;;33.17;23.00;;;;;;;1.36;72.41;101978.19;5021438;28;20038;-49
2022/03/05 05:43:05;;;;;;;34.65;23.65;;;;;;;1.37;72.42;101978.03;5014523;28;20054;-49
2022/03/05 05:45:33;;;;;;;31.48;22.38;;;;;;;1.39;72.32;101985.88;5013930;28;20504;-48
2022/03/05 05:48:02;;;;;;;33.63;23.13;;;;;;;1.37;72.07;101977.16;5013903;28;20496;-54
2022/03/05 05:50:30;;;;;;;29.48;20.58;;;;;;;1.37;72.28;101979.84;5012991;28;20065;-49
2022/03/05 05:52:58;;;;;;;31.63;22.10;;;;;;;1.40;72.37;101974.97;5021599;28;20085;-49
2022/03/05 05:55:25;;;;;;;30.85;22.30;;;;;;;1.48;72.06;101980.28;5032280;28;20052;-50
2022/03/05 05:57:53;;;;;;;34.35;23.35;;;;;;;1.54;72.03;101967.13;5032157;28;20045;-49
2022/03/05 06:00:21;;;;;;;33.22;22.75;;;;;;;1.42;71.77;101969.41;5023408;28;20113;-54
2022/03/05 06:02:49;;;;;;;34.80;23.38;;;;;;;1.33;72.15;101973.19;5014853;28;20038;-53
2022/03/05 06:05:17;;;;;;;35.75;24.35;;;;;;;1.27;72.62;101972.91;5013652;28;20100;-53
2022/03/05 06:07:44;;;;;;;34.58;21.85;;;;;;;1.34;72.61;101967.63;5013251;28;20096;-50
2022/03/05 06:10:12;;;;;;;38.25;25.40;;;;;;;1.37;72.01;101971.78;5014402;28;20507;-48
2022/03/05 06:12:40;;;;;;;33.60;23.70;;;;;;;1.31;72.68;101977.91;5026491;28;20064;-56
2022/03/05 06:15:09;;;;;;;34.92;23.90;;;;;;;1.20;72.09;101971.94;5032436;28;20056;-54
2022/03/05 06:17:40;;;;;;;35.97;23.92;;;;;;;1.15;73.09;101968.91;5025812;28;20049;-51
2022/03/05 06:20:09;;;;;;;33.05;23.50;;;;;;;1.15;73.38;101968.91;5013260;28;20564;-49
2022/03/05 06:22:37;;;;;;;35.38;24.40;;;;;;;1.19;73.24;101975.63;5013654;28;20053;-52
2022/03/05 06:25:06;;;;;;;39.17;24.75;;;;;;;1.18;73.41;101973.94;5011789;28;20049;-51
2022/03/05 06:27:34;;;;;;;36.00;24.02;;;;;;;1.25;73.02;101969.53;5014088;28;20041;-51
2022/03/05 06:30:01;;;;;;;35.60;23.77;;;;;;;1.22;72.70;101967.19;5013329;28;20041;-50
2022/03/05 06:32:29;;;;;;;38.05;24.65;;;;;;;1.20;72.73;101971.94;5022583;28;20057;-53
2022/03/05 06:34:57;;;;;;;35.00;22.80;;;;;;;1.19;73.04;101970.25;5033736;28;20072;-51
2022/03/05 06:37:25;;;;;;;35.10;24.65;;;;;;;1.22;73.13;101971.72;5035044;28;20129;-50
2022/03/05 06:39:52;;;;;;;36.50;24.98;;;;;;;1.25;72.93;101966.00;5030643;28;20038;-48
2022/03/05 06:42:20;;;;;;;39.78;25.55;;;;;;;1.19;72.92;101975.63;5036262;28;20112;-52
2022/03/05 06:44:47;;;;;;;39.65;26.77;;;;;;;1.10;73.15;101973.97;5035287;28;20067;-53
2022/03/05 06:47:15;;;;;;;37.10;24.65;;;;;;;1.13;73.42;101975.47;5030328;28;20069;-53
2022/03/05 06:49:43;;;;;;;38.28;25.85;;;;;;;1.18;73.48;101971.28;5012151;28;20050;-56
2022/03/05 06:52:11;;;;;;;38.05;26.88;;;;;;;1.04;73.87;101972.84;5005040;28;20054;-52
2022/03/05 06:54:39;;;;;;;39.25;25.83;;;;;;;1.04;74.44;101972.84;5013048;28;20556;-49
2022/03/05 06:57:07;;;;;;;37.85;26.40;;;;;;;1.12;73.71;101985.38;5012742;28;20052;-51
2022/03/05 06:59:34;;;;;;;40.83;27.27;;;;;;;1.15;73.95;101976.97;5012042;28;20050;-51
2022/03/05 07:02:03;;;;;;;39.13;26.77;;;;;;;1.16;73.99;101985.88;5025914;28;20049;-49
2022/03/05 07:04:31;;;;;;;41.13;27.88;;;;;;;1.11;73.89;101993.59;5032505;28;20069;-47
2022/03/05 07:06:58;;;;;;;41.10;28.20;;;;;;;0.99;74.53;101990.50;5028966;28;20096;-48
2022/03/05 07:09:26;;;;;;;34.72;22.33;;;;;;;1.04;75.98;102004.22;5013580;28;20037;-52
2022/03/05 07:11:54;;;;;;;42.00;26.85;;;;;;;1.16;74.63;102012.72;5015835;28;20093;-51
2022/03/05 07:14:21;;;;;;;40.22;26.27;;;;;;;1.19;74.47;102007.81;5013038;28;20073;-49
2022/03/05 07:16:49;;;;;;;39.85;25.98;;;;;;;1.25;74.32;102007.13;5013074;28;20439;-53
2022/03/05 07:19:17;;;;;;;37.58;25.35;;;;;;;1.28;73.87;102003.25;5012832;28;20092;-49
2022/03/05 07:21:45;;;;;;;36.35;25.02;;;;;;;1.30;73.67;102013.78;5025874;28;20081;-49
2022/03/05 07:24:13;;;;;;;38.90;25.92;;;;;;;1.34;74.05;102015.94;5032442;28;20480;-50
2022/03/05 07:26:40;;;;;;;38.10;25.77;;;;;;;1.41;73.90;102016.91;5030170;28;20086;-50
2022/03/05 07:29:08;;;;;;;37.50;25.83;;;;;;;1.51;73.45;102022.06;5016301;28;20046;-52
2022/03/05 07:31:37;;;;;;;36.78;25.88;;;;;;;1.50;73.53;102015.03;5015257;28;20053;-54
2022/03/05 07:34:06;;;;;;;36.30;23.90;;;;;;;1.53;73.05;102020.03;5029266;28;20042;-51
2022/03/05 07:36:34;;;;;;;37.20;24.70;;;;;;;1.51;73.41;102022.06;5036079;28;20050;-51
2022/03/05 07:39:03;;;;;;;36.65;24.67;;;;;;;1.54;73.61;102016.34;5036093;28;20530;-52
2022/03/05 07:41:31;;;;;;;38.38;24.90;;;;;;;1.59;73.35;102018.47;5034978;28;20041;-55
2022/03/05 07:43:59;;;;;;;34.70;24.15;;;;;;;1.64;73.36;102011.56;5036189;28;20457;-52
2022/03/05 07:46:27;;;;;;;35.88;24.15;;;;;;;1.68;72.96;102015.56;5020324;28;20038;-51
2022/03/05 07:48:54;;;;;;;35.50;24.65;;;;;;;1.66;72.84;102020.28;5016365;28;20460;-50
2022/03/05 07:51:22;;;;;;;36.63;24.73;;;;;;;1.54;73.92;102024.41;5014798;28;20133;-52
2022/03/05 07:53:50;;;;;;;38.90;26.65;;;;;;;1.45;74.12;102018.25;5016405;28;20068;-50
2022/03/05 07:56:19;;;;;;;36.78;24.88;;;;;;;1.40;74.41;102020.63;5016050;28;20050;-51
2022/03/05 07:58:47;;;;;;;37.72;24.00;;;;;;;1.47;74.70;102020.75;5025532;28;20033;-51
2022/03/05 08:01:15;;;;;;;38.47;24.60;;;;;;;1.50;74.57;102023.09;5035428;28;20499;-50
2022/03/05 08:03:43;;;;;;;44.97;26.13;;;;;;;1.55;74.72;102027.91;5035826;28;20052;-47
2022/03/05 08:06:10;;;;;;;40.45;25.95;;;;;;;1.63;74.38;102034.06;5020210;28;20112;-52
2022/03/05 08:08:38;;;;;;;39.90;26.77;;;;;;;1.65;73.82;102037.41;5033330;28;20056;-48
2022/03/05 08:11:07;;;;;;;44.50;26.25;;;;;;;1.55;74.09;102044.03;5035398;28;20038;-50
2022/03/05 08:13:34;;;;;;;38.15;23.90;;;;;;;1.46;74.70;102036.00;5035229;28;20041;-52
2022/03/05 08:16:02;;;;;;;39.90;26.65;;;;;;;1.53;74.75;102033.47;5019590;28;20060;-48
2022/03/05 08:18:30;;;;;;;41.10;25.85;;;;;;;1.62;74.85;102040.44;5016793;28;20072;-51
2022/03/05 08:20:58;;;;;;;39.47;26.85;;;;;;;1.73;74.49;102041.03;5015476;28;20046;-51
2022/03/05 08:23:25;;;;;;;40.60;26.73;;;;;;;1.76;74.46;102043.38;5014095;28;20041;-48
2022/03/05 08:25:53;;;;;;;43.50;28.58;;;;;;;1.80;74.61;102047.38;5020159;28;20044;-48
2022/03/05 08:28:22;;;;;;;45.63;28.20;;;;;;;1.87;74.09;102040.25;5015199;28;20046;-49
2022/03/05 08:30:50;;;;;;;43.92;27.55;;;;;;;1.85;74.11;102042.28;5024837;28;20034;-48
2022/03/05 08:33:18;;;;;;;44.63;29.13;;;;;;;1.82;74.61;102042.66;5017276;28;20049;-50
2022/03/05 08:35:45;;;;;;;42.58;27.75;;;;;;;1.80;74.70;102048.19;5034658;28;20478;-48
2022/03/05 08:38:13;;;;;;;41.22;25.95;;;;;;;1.80;75.06;102042.00;5034664;28;20060;-52
2022/03/05 08:40:41;;;;;;;41.90;26.75;;;;;;;1.84;75.35;102041.47;5034625;28;20434;-51
2022/03/05 08:43:08;;;;;;;41.10;26.80;;;;;;;1.95;74.88;102042.91;5029617;28;20121;-49
2022/03/05 08:45:36;;;;;;;42.50;27.27;;;;;;;2.03;74.22;102042.00;5015238;28;20060;-51
2022/03/05 08:48:04;;;;;;;45.53;28.52;;;;;;;1.97;74.25;102038.16;5015331;28;20124;-48
2022/03/05 08:50:32;;;;;;;41.53;26.42;;;;;;;1.99;74.62;102037.97;5014887;28;20136;-48
2022/03/05 08:52:59;;;;;;;42.42;28.00;;;;;;;2.04;74.62;102040.97;5013649;28;20058;-50
2022/03/05 08:55:27;;;;;;;43.70;28.15;;;;;;;2.08;74.27;102037.72;5016811;28;20052;-48
2022/03/05 08:57:56;;;;;;;43.17;27.20;;;;;;;2.08;74.24;102040.41;5014781;28;20046;-52
2022/03/05 09:00:23;;;;;;;37.20;24.77;;;;;;;2.16;74.28;102039.50;5014714;28;20516;-50
2022/03/05 09:02:51;;;;;;;40.35;27.25;;;;;;;2.22;73.66;102043.34;5015203;28;20072;-49
2022/03/05 09:05:19;;;;;;;42.28;27.02;;;;;;;2.25;73.70;102029.50;5014617;28;20038;-51
2022/03/05 09:07:47;;;;;;;41.65;27.05;;;;;;;2.31;73.72;102035.00;4999235;28;20042;-51
2022/03/05 09:10:14;;;;;;;40.28;27.42;;;;;;;2.39;73.36;102039.47;4996962;28;20050;-46
2022/03/05 09:12:42;;;;;;;42.88;28.13;;;;;;;2.45;72.90;102030.63;5013254;28;20408;-47
2022/03/05 09:15:10;;;;;;;40.70;27.05;;;;;;;2.49;72.20;102026.56;5014446;28;20487;-48
2022/03/05 09:17:38;;;;;;;39.90;26.67;;;;;;;2.52;71.84;102025.38;5016211;28;20050;-49
2022/03/05 09:20:07;;;;;;;38.97;27.45;;;;;;;2.53;71.75;102035.13;5032726;28;20404;-48
2022/03/05 09:22:35;;;;;;;41.25;26.90;;;;;;;2.53;72.26;102027.06;5030902;28;20217;-47
2022/03/05 09:25:03;;;;;;;40.33;27.48;;;;;;;2.55;72.33;102030.41;5014551;28;20050;-47
2022/03/05 09:27:31;;;;;;;43.25;26.80;;;;;;;2.57;72.34;102028.31;5014360;28;20054;-52
2022/03/05 09:29:58;;;;;;;41.67;27.02;;;;;;;2.61;72.16;102024.25;5015341;28;20070;-49
2022/03/05 09:32:26;;;;;;;41.28;27.67;;;;;;;2.67;71.74;102028.06;5017044;28;20144;-51
2022/03/05 09:34:59;;;;;;;41.65;27.05;;;;;;;2.71;71.76;102019.41;5033476;28;20510;-48
2022/03/05 09:37:30;;;;;;;36.58;25.33;;;;;;;2.78;71.16;102020.34;5033781;28;20044;-50
2022/03/05 09:39:58;;;;;;;39.65;26.85;;;;;;;2.88;71.48;102030.81;5032789;28;20037;-47
2022/03/05 09:42:25;;;;;;;41.15;28.48;;;;;;;2.90;70.81;102028.78;5034056;28;20037;-48
2022/03/05 09:44:54;;;;;;;41.72;26.52;;;;;;;2.89;71.27;102029.81;5031811;28;20041;-44
2022/03/05 09:47:22;;;;;;;40.10;26.90;;;;;;;2.94;71.16;102029.25;5032814;28;20045;-48
2022/03/05 09:49:50;;;;;;;41.63;26.60;;;;;;;2.97;71.44;102029.69;5033118;28;20057;-48
2022/03/05 09:52:19;;;;;;;42.25;27.02;;;;;;;3.00;70.97;102025.81;5033480;28;20058;-50
2022/03/05 09:54:47;;;;;;;40.28;26.70;;;;;;;3.03;70.93;102033.53;5032312;28;20420;-52
2022/03/05 09:57:15;;;;;;;39.88;26.75;;;;;;;3.10;70.48;102034.44;5027669;28;20484;-43
2022/03/05 09:59:43;;;;;;;41.58;27.95;;;;;;;3.12;69.93;102031.53;5020512;28;20416;-44
2022/03/05 10:02:12;;;;;;;38.20;25.15;;;;;;;3.13;70.45;102028.66;5016017;28;20045;-45
2022/03/05 10:04:41;;;;;;;43.80;28.23;;;;;;;3.17;70.42;102026.41;5030519;28;20128;-45
2022/03/05 10:07:19;;;;;;;43.53;28.70;;;;;;;3.18;69.86;102030.78;5033033;28;20499;-47
2022/03/05 10:09:48;;;;;;;43.75;27.75;;;;;;;3.19;70.05;102032.44;5029914;28;20045;-44
2022/03/05 10:12:30;;;;;;;45.17;28.92;;;;;;;3.24;70.17;102035.41;5032243;28;20065;-50
2022/03/05 10:15:09;;;;;;;41.47;27.73;;;;;;;3.27;69.65;102029.66;5024880;28;20488;-48
2022/03/05 10:17:54;;;;;;;45.85;29.00;;;;;;;3.27;69.44;102032.38;5033127;28;20044;-47
2022/03/05 10:20:26;;;;;;;43.75;27.52;;;;;;;3.31;69.76;102030.94;5031168;28;20049;-45
2022/03/05 10:22:59;;;;;;;37.53;25.38;;;;;;;3.35;69.19;102026.84;5009031;28;20062;-45
2022/03/05 10:25:45;;;;;;;42.65;27.33;;;;;;;3.39;69.52;102030.84;5013572;28;20385;-48
2022/03/05 10:28:25;;;;;;;41.95;26.15;;;;;;;3.45;69.45;102025.72;5023577;28;20432;-44
2022/03/05 10:30:54;;;;;;;37.42;22.38;;;;;;;3.55;70.79;102026.22;5017387;28;20042;-44
2022/03/05 10:33:30;;;;;;;39.72;25.40;;;;;;;3.59;69.72;102033.72;5013245;28;20049;-45
2022/03/05 10:36:16;;;;;;;33.63;21.25;;;;;;;3.67;70.07;102032.78;5014052;28;20046;-46
2022/03/05 10:38:54;;;;;;;;;;;;;;;3.71;70.64;102036.75;5012689;28;20554;-48
2022/03/05 10:41:30;;;;;;;41.25;26.75;;;;;;;3.71;68.24;102036.75;5011877;28;19928;-48
2022/03/05 10:44:15;;;;;;;42.30;26.88;;;;;;;3.72;67.87;102037.59;5013267;28;20046;-46
2022/03/05 10:46:48;;;;;;;43.63;28.00;;;;;;;3.72;67.47;102032.19;5012090;28;20142;-50
2022/03/05 10:49:18;;;;;;;38.33;26.42;;;;;;;3.74;67.53;102032.84;5027409;28;20045;-45
2022/03/05 10:52:02;;;;;;;41.03;26.35;;;;;;;3.77;67.43;102024.34;5013005;28;20042;-45
2022/03/05 10:54:32;;;;;;;39.90;26.90;;;;;;;3.80;67.58;102029.34;5013479;28;20515;-46
2022/03/05 10:57:06;;;;;;;42.35;27.10;;;;;;;3.83;66.76;102024.44;5013502;28;20042;-50
2022/03/05 10:59:42;;;;;;;43.17;26.65;;;;;;;3.86;66.41;102022.38;5013210;28;20042;-47
2022/03/05 11:02:11;;;;;;;39.42;25.92;;;;;;;3.91;66.76;102019.94;5015733;28;20069;-48
2022/03/05 11:04:39;;;;;;;38.47;25.98;;;;;;;3.94;66.21;102019.53;5016939;28;20049;-49
2022/03/05 11:07:08;;;;;;;40.47;25.95;;;;;;;3.97;66.77;102022.69;5016804;28;20045;-47
2022/03/05 11:09:38;;;;;;;41.67;27.20;;;;;;;3.99;66.42;102023.34;5015705;28;20140;-46
2022/03/05 11:12:09;;;;;;;39.97;26.58;;;;;;;4.08;66.70;102024.00;5018211;28;20064;-48
2022/03/05 11:14:39;;;;;;;37.95;25.42;;;;;;;4.10;66.46;102027.34;5036123;28;20113;-44
2022/03/05 11:17:08;;;;;;;38.15;25.00;;;;;;;4.12;65.20;102030.69;5035355;28;20051;-48
2022/03/05 11:19:36;;;;;;;41.47;25.67;;;;;;;4.12;63.91;102028.00;5035790;28;20037;-49
2022/03/05 11:22:04;;;;;;;38.90;26.80;;;;;;;4.14;63.43;102028.63;5018817;28;20052;-47
2022/03/05 11:24:32;;;;;;;40.55;25.83;;;;;;;4.15;62.54;102026.75;5025641;28;20116;-49
2022/03/05 11:27:00;;;;;;;40.65;27.17;;;;;;;4.16;62.55;102021.19;5015443;28;20510;-49